Beresford, SD

3:17 PM CDT on July 22, 2014 (GMT -0500)
Northside (KSDLENNO2) Elev 1358 ft | 43.36 °N, 96.90 °W | Change Station

Current weather conditions updated 3 minutes ago

Mostly Cloudy
Mostly Cloudy
86.5 °F
Feels Like 91 °F
N
4.7
Wind Variable Wind from North

Today is forecast to be Cooler than yesterday.

Today
High -- | Low -- °F
--% Chance of Precip.
Yesterday
High -- | Low -- °F
Precip. -- in
6:07 AM 8:58 PM
Waning Crescent, 15% visible
Pressure 30.13 in
Visibility 10.0 miles
Clouds Clear
Heat Index 91 °F
Dew Point 69 °F
Humidity 56%
Rainfall 0.02 in
Snow Depth Not available.
UV 10 out of 12
Pollen 6.30 out of 12
Air Quality Not available.
Flu Activity Sporadic
METAR KYKN 221955Z AUTO 01009KT 10SM CLR 27/19 A3013 RMK AO1

More Conditions Fewer Conditions

Pressure 30.13 in
Visibility 10.0 miles
Clouds Clear
Heat Index 91 °F
Dew Point 69 °F
Humidity 56%
Rainfall 0.02 in
Snow Depth Not available.
UV 10 out of 12
Pollen 6.30 out of 12
Air Quality Not available.
Flu Activity Sporadic
METAR KYKN 221955Z AUTO 01009KT 10SM CLR 27/19 A3013 RMK AO1

More Conditions Fewer Conditions

10-Day Weather Forecast

Almanac

Astronomy

Jul. 22, 2014 Rise Set
Actual Time 6:07 AM CDT 8:58 PM CDT
Civil Twilight 5:34 AM CDT 9:32 PM CDT
Nautical Twilight 4:51 AM CDT 10:14 PM CDT
Astronomical Twilight 4:02 AM CDT 11:03 PM CDT
Moon 2:42 AM CDT 5:37 PM CDT
Length of Visible Light 15h 57m
Length of Day
14h 51m
Tomorrow will be 1m 53s shorter.
Waning Crescent, 15% of the Moon is Illuminated
Today
Waning Crescent
Jul 26
New
Aug 3
First Quarter
Aug 10
Full
Aug 17
Last Quarter

Today's Extremes

State Highs State Lows

Community

WunderPhotos

Upload Photos

1,736,345 photos uploaded!

Nearby

Snow Depth

Station Depth Elevation
Blind Park 1 in 6890 ft

Earthquake Activity

City Distance Mag. Time & Date
No recent earthquake activity has been reported nearby.
Minimum magnitude displayed is 2.5.

Coastal Water Temperatures

Place Temperature
No Stations Reporting

Nearby Weather Stations

Station Location Temp. Heat Index Dew Point Humidity Wind Precip. Elev Updated Type
Northside, Lennox, SD 86.5 °F 91 °F 69 °F 56% North  at  4.7 mph - / hr 1358 ft 3:14 PM CDT Normal
Campingfarmer, Rock Valley, IA 84.0 °F 88 °F 69 °F 61% NW  at  3.8 mph 0.00 in / hr 1253 ft 3:15 PM CDT Normal

Show More Stations Show Fewer Stations